createdAt,value
2022-09-06T00:00:27.969Z,54.83
2022-09-06T00:01:27.958Z,53.75
2022-09-06T00:02:27.988Z,53.55
2022-09-06T00:03:27.918Z,54.05
2022-09-06T00:04:27.961Z,54.46
2022-09-06T00:05:27.899Z,53.55
2022-09-06T00:06:27.888Z,54.05
2022-09-06T00:07:27.891Z,54.86
2022-09-06T00:08:27.983Z,54.46
2022-09-06T00:09:27.890Z,54.46
2022-09-06T00:10:27.832Z,55.57
2022-09-06T00:11:28.024Z,54.76
2022-09-06T00:12:27.832Z,53.55
2022-09-06T00:13:27.803Z,53.34
2022-09-06T00:14:27.790Z,54.86
2022-09-06T00:15:27.813Z,53.65
2022-09-06T00:16:30.417Z,53.96
2022-09-06T00:17:27.760Z,53.85
2022-09-06T00:18:27.817Z,53.38
2022-09-06T00:19:34.747Z,54.58
2022-09-06T00:20:27.696Z,53.67
2022-09-06T00:21:27.686Z,54.08
2022-09-06T00:22:27.667Z,54.08
2022-09-06T00:23:27.674Z,54.18
2022-09-06T00:24:27.658Z,53.98
2022-09-06T00:25:27.628Z,53.88
2022-09-06T00:26:27.629Z,54.69
2022-09-06T00:27:27.608Z,54.18
2022-09-06T00:28:27.716Z,54.69
2022-09-06T00:29:27.588Z,55.60
2022-09-06T00:30:27.580Z,54.99
2022-09-06T00:31:27.648Z,55.60
2022-09-06T00:32:27.566Z,54.89
2022-09-06T00:33:27.548Z,54.69
2022-09-06T00:34:27.527Z,55.29
2022-09-06T00:35:27.506Z,54.79
2022-09-06T00:36:27.517Z,55.40
2022-09-06T00:37:27.467Z,54.89
2022-09-06T00:38:27.587Z,54.79
2022-09-06T00:39:27.472Z,54.08
2022-09-06T00:40:27.443Z,54.51
2022-09-06T00:41:27.439Z,53.80
2022-09-06T00:42:27.410Z,54.91
2022-09-06T00:43:27.390Z,54.91
2022-09-06T00:44:27.389Z,55.11
2022-09-06T00:45:27.388Z,55.52
2022-09-06T00:46:27.368Z,55.02
2022-09-06T00:47:27.339Z,54.91
2022-09-06T00:48:27.435Z,54.31
2022-09-06T00:49:27.311Z,55.24
2022-09-06T00:50:27.297Z,54.51
2022-09-06T00:51:27.299Z,55.82
2022-09-06T00:52:27.269Z,55.65
2022-09-06T00:53:27.257Z,55.11
2022-09-06T00:54:27.282Z,54.31
2022-09-06T00:55:27.231Z,54.11
2022-09-06T00:56:27.231Z,54.71
2022-09-06T00:57:27.314Z,55.24
2022-09-06T00:58:27.385Z,54.74
2022-09-06T00:59:27.224Z,55.02
2022-09-06T01:00:27.161Z,54.71
2022-09-06T01:01:27.296Z,54.74
2022-09-06T01:02:27.289Z,55.04
2022-09-06T01:03:27.143Z,55.24
2022-09-06T01:04:27.121Z,55.35
2022-09-06T01:05:27.099Z,55.15
2022-09-06T01:06:27.092Z,55.04
2022-09-06T01:07:27.082Z,54.91
2022-09-06T01:08:27.236Z,55.62
2022-09-06T01:09:27.043Z,54.71
2022-09-06T01:10:27.031Z,55.52
2022-09-06T01:11:27.009Z,55.29
2022-09-06T01:12:27.001Z,55.09
2022-09-06T01:13:27.000Z,54.69
2022-09-06T01:14:26.974Z,54.38
2022-09-06T01:15:27.042Z,53.88
2022-09-06T01:16:26.971Z,55.09
2022-09-06T01:17:26.951Z,54.38
2022-09-06T01:18:27.090Z,54.69
2022-09-06T01:19:26.923Z,54.05
2022-09-06T01:20:26.903Z,53.96
2022-09-06T01:21:26.895Z,52.97
2022-09-06T01:22:26.881Z,54.58
2022-09-06T01:23:26.854Z,54.49
2022-09-06T01:24:26.879Z,53.88
2022-09-06T01:25:26.843Z,55.29
2022-09-06T01:26:26.883Z,54.58
2022-09-06T01:27:26.809Z,54.89
2022-09-06T01:28:26.877Z,55.80
2022-09-06T01:29:26.774Z,54.18
2022-09-06T01:30:26.792Z,54.79
2022-09-06T01:31:26.818Z,54.71
2022-09-06T01:32:26.753Z,54.51
2022-09-06T01:33:26.743Z,55.52
2022-09-06T01:34:26.726Z,55.32
2022-09-06T01:35:26.723Z,55.02
2022-09-06T01:36:26.705Z,55.11
2022-09-06T01:37:26.665Z,55.42
2022-09-06T01:38:26.741Z,55.73
2022-09-06T01:39:26.689Z,55.22
2022-09-06T01:40:26.635Z,56.13
2022-09-06T01:41:26.653Z,55.52
2022-09-06T01:42:26.604Z,54.51
2022-09-06T01:43:26.583Z,55.04
2022-09-06T01:44:26.648Z,55.24
2022-09-06T01:45:26.566Z,55.65
2022-09-06T01:46:26.607Z,55.57
2022-09-06T01:47:26.555Z,55.68
2022-09-06T01:48:26.697Z,55.68
2022-09-06T01:49:26.525Z,55.98
2022-09-06T01:50:26.506Z,56.41
2022-09-06T01:51:26.495Z,56.31
2022-09-06T01:52:26.466Z,57.12
2022-09-06T01:53:26.457Z,56.82
2022-09-06T01:54:26.449Z,57.12
2022-09-06T01:55:26.436Z,57.42
2022-09-06T01:56:26.445Z,57.22
2022-09-06T01:57:26.406Z,56.95
2022-09-06T01:58:26.468Z,57.65
2022-09-06T01:59:26.381Z,57.65
2022-09-06T02:00:26.376Z,57.55
2022-09-06T02:01:26.395Z,57.55
2022-09-06T02:02:26.427Z,57.86
2022-09-06T02:03:26.347Z,58.16
2022-09-06T02:04:26.328Z,57.96
2022-09-06T02:05:26.308Z,57.65
2022-09-06T02:06:26.283Z,58.06
2022-09-06T02:07:26.275Z,57.86
2022-09-06T02:08:26.334Z,58.06
2022-09-06T02:09:26.239Z,58.26
2022-09-06T02:10:26.238Z,58.39
2022-09-06T02:11:26.208Z,58.49
2022-09-06T02:12:26.207Z,58.69
2022-09-06T02:13:26.189Z,59.41
2022-09-06T02:14:26.232Z,58.80
2022-09-06T02:15:26.170Z,58.80
2022-09-06T02:16:26.190Z,59.10
2022-09-06T02:17:26.140Z,59.30
2022-09-06T02:18:26.159Z,59.20
2022-09-06T02:19:26.121Z,59.41
2022-09-06T02:20:26.109Z,59.41
2022-09-06T02:21:26.089Z,59.81
2022-09-06T02:22:26.068Z,59.50
2022-09-06T02:23:26.048Z,59.81
2022-09-06T02:24:26.058Z,59.84
2022-09-06T02:25:26.038Z,60.14
2022-09-06T02:26:26.018Z,60.04
2022-09-06T02:27:25.998Z,60.24
2022-09-06T02:28:26.120Z,60.04
2022-09-06T02:29:26.038Z,60.55
2022-09-06T02:30:26.007Z,60.44
2022-09-06T02:31:26.020Z,61.05
2022-09-06T02:32:25.949Z,60.65
2022-09-06T02:33:25.920Z,61.05
2022-09-06T02:34:25.926Z,61.05
2022-09-06T02:35:25.910Z,60.85
2022-09-06T02:36:25.880Z,61.25
2022-09-06T02:37:25.861Z,61.16
2022-09-06T02:38:25.888Z,61.66
2022-09-06T02:39:25.903Z,61.66
2022-09-06T02:40:25.861Z,61.76
2022-09-06T02:41:25.870Z,61.97
2022-09-06T02:42:25.812Z,61.99
2022-09-06T02:43:25.794Z,62.10
2022-09-06T02:44:25.790Z,62.30
2022-09-06T02:45:25.759Z,62.30
2022-09-06T02:46:25.839Z,62.20
2022-09-06T02:47:25.752Z,62.40
2022-09-06T02:48:25.774Z,62.51
2022-09-06T02:49:25.721Z,62.71
2022-09-06T02:50:25.711Z,63.01
2022-09-06T02:51:25.702Z,62.91
2022-09-06T02:52:25.692Z,63.01
2022-09-06T02:53:25.662Z,63.42
2022-09-06T02:54:25.652Z,62.81
2022-09-06T02:55:25.630Z,62.91
2022-09-06T02:56:25.629Z,63.11
2022-09-06T02:57:25.634Z,63.11
2022-09-06T02:58:25.606Z,63.32
2022-09-06T02:59:25.602Z,63.32
2022-09-06T03:00:25.581Z,63.42
2022-09-06T03:01:25.625Z,63.62
2022-09-06T03:02:25.606Z,63.92
2022-09-06T03:03:25.532Z,63.92
2022-09-06T03:04:25.632Z,63.82
2022-09-06T03:05:25.514Z,63.92
2022-09-06T03:06:25.500Z,64.03
2022-09-06T03:07:25.499Z,63.92
2022-09-06T03:08:25.523Z,64.03
2022-09-06T03:09:25.471Z,63.82
2022-09-06T03:10:25.453Z,63.82
2022-09-06T03:11:25.434Z,64.13
2022-09-06T03:12:25.421Z,64.13
2022-09-06T03:13:25.404Z,64.03
2022-09-06T03:14:25.396Z,64.43
2022-09-06T03:15:25.424Z,64.23
2022-09-06T03:16:25.406Z,64.43
2022-09-06T03:17:25.382Z,64.43
2022-09-06T03:18:25.375Z,64.13
2022-09-06T03:19:25.382Z,63.92
2022-09-06T03:20:25.323Z,64.03
2022-09-06T03:21:25.342Z,64.33
2022-09-06T03:22:25.282Z,64.03
2022-09-06T03:23:25.276Z,64.13
2022-09-06T03:24:25.262Z,64.33
2022-09-06T03:25:25.314Z,64.03
2022-09-06T03:26:25.265Z,64.23
2022-09-06T03:27:25.286Z,64.23
2022-09-06T03:28:25.255Z,64.33
2022-09-06T03:29:25.215Z,64.23
2022-09-06T03:30:25.212Z,64.43
2022-09-06T03:31:25.216Z,64.33
2022-09-06T03:32:25.176Z,64.33
2022-09-06T03:33:25.148Z,64.43
2022-09-06T03:34:25.135Z,64.53
2022-09-06T03:35:25.123Z,64.53
2022-09-06T03:36:25.128Z,64.43
2022-09-06T03:37:25.123Z,64.43
2022-09-06T03:38:25.128Z,64.53
2022-09-06T03:39:25.128Z,64.73
2022-09-06T03:40:25.069Z,64.43
2022-09-06T03:41:25.054Z,64.43
2022-09-06T03:42:25.056Z,64.53
2022-09-06T03:43:25.028Z,64.64
2022-09-06T03:44:24.996Z,64.43
2022-09-06T03:45:24.990Z,64.64
2022-09-06T03:46:25.058Z,64.73
2022-09-06T03:47:25.034Z,64.84
2022-09-06T03:48:25.029Z,64.84
2022-09-06T03:49:24.945Z,64.73
2022-09-06T03:50:24.976Z,64.73
2022-09-06T03:51:24.981Z,64.94
2022-09-06T03:52:24.967Z,64.94
2022-09-06T03:53:24.885Z,64.84
2022-09-06T03:54:24.856Z,64.64
2022-09-06T03:55:24.864Z,64.94
2022-09-06T03:56:24.886Z,65.04
2022-09-06T03:57:24.827Z,65.04
2022-09-06T03:58:24.833Z,64.94
2022-09-06T03:59:24.917Z,65.24
2022-09-06T04:00:24.818Z,65.55
2022-09-06T04:01:24.892Z,65.55
2022-09-06T04:02:24.888Z,64.94
2022-09-06T04:03:24.760Z,64.94
2022-09-06T04:04:24.744Z,65.24
2022-09-06T04:05:24.749Z,65.34
2022-09-06T04:06:24.720Z,65.75
2022-09-06T04:07:24.705Z,65.65
2022-09-06T04:08:24.698Z,65.45
2022-09-06T04:09:24.668Z,65.65
2022-09-06T04:10:24.679Z,65.48
2022-09-06T04:11:24.658Z,65.58
2022-09-06T04:12:24.670Z,65.58
2022-09-06T04:13:24.639Z,66.08
2022-09-06T04:14:24.598Z,66.08
2022-09-06T04:15:24.606Z,65.48
2022-09-06T04:16:24.635Z,65.99
2022-09-06T04:17:24.577Z,65.85
2022-09-06T04:18:24.645Z,65.75
2022-09-06T04:19:24.546Z,65.45
2022-09-06T04:20:24.538Z,65.75
2022-09-06T04:21:24.518Z,65.65
2022-09-06T04:22:24.499Z,65.65
2022-09-06T04:23:24.510Z,65.34
2022-09-06T04:24:24.469Z,65.55
2022-09-06T04:25:24.531Z,65.45
2022-09-06T04:26:24.451Z,65.75
2022-09-06T04:27:24.440Z,65.34
2022-09-06T04:28:24.438Z,65.65
2022-09-06T04:29:24.410Z,65.75
2022-09-06T04:30:24.471Z,65.55
2022-09-06T04:31:24.429Z,65.65
2022-09-06T04:32:24.368Z,65.14
2022-09-06T04:33:24.359Z,65.34
2022-09-06T04:34:24.379Z,65.65
2022-09-06T04:35:24.339Z,65.55
2022-09-06T04:36:24.419Z,65.55
2022-09-06T04:37:24.337Z,65.65
2022-09-06T04:38:24.311Z,65.65
2022-09-06T04:39:24.362Z,65.45
2022-09-06T04:40:24.330Z,65.34
2022-09-06T04:41:24.262Z,65.65
2022-09-06T04:42:24.252Z,65.24
2022-09-06T04:43:24.247Z,65.45
2022-09-06T04:44:25.086Z,65.14
2022-09-06T04:45:24.242Z,65.14
2022-09-06T04:46:24.189Z,65.34
2022-09-06T04:47:24.204Z,65.45
2022-09-06T04:48:24.263Z,65.34
2022-09-06T04:49:24.171Z,65.34
2022-09-06T04:50:24.131Z,65.14
2022-09-06T04:51:24.132Z,65.34
2022-09-06T04:52:27.052Z,65.14
2022-09-06T04:53:25.092Z,65.24
2022-09-06T04:54:24.112Z,65.24
2022-09-06T04:55:24.093Z,65.45
2022-09-06T04:56:24.133Z,65.55
2022-09-06T04:57:24.131Z,65.45
2022-09-06T04:58:24.033Z,65.45
2022-09-06T04:59:24.027Z,65.65
2022-09-06T05:00:24.046Z,65.45
2022-09-06T05:01:24.195Z,65.55
2022-09-06T05:02:24.044Z,65.55
2022-09-06T05:03:23.962Z,65.55
2022-09-06T05:04:23.949Z,65.45
2022-09-06T05:05:23.944Z,65.45
2022-09-06T05:06:23.919Z,65.34
2022-09-06T05:07:23.933Z,65.24
2022-09-06T05:08:23.944Z,65.34
2022-09-06T05:09:23.881Z,65.04
2022-09-06T05:10:23.893Z,65.24
2022-09-06T05:11:23.886Z,65.45
2022-09-06T05:12:23.855Z,65.34
2022-09-06T05:13:23.843Z,65.65
2022-09-06T05:14:23.813Z,65.75
2022-09-06T05:15:23.805Z,65.45
2022-09-06T05:16:23.851Z,65.34
2022-09-06T05:17:23.783Z,65.24
2022-09-06T05:18:23.774Z,65.24
2022-09-06T05:19:23.766Z,65.11
2022-09-06T05:20:23.752Z,65.31
2022-09-06T05:21:23.744Z,65.31
2022-09-06T05:22:23.716Z,65.42
2022-09-06T05:23:23.716Z,64.81
2022-09-06T05:24:23.694Z,64.70
2022-09-06T05:25:23.722Z,64.50
2022-09-06T05:26:23.664Z,64.70
2022-09-06T05:27:23.679Z,65.01
2022-09-06T05:28:23.676Z,64.50
2022-09-06T05:29:25.602Z,64.50
2022-09-06T05:30:24.594Z,65.11
2022-09-06T05:31:23.718Z,64.91
2022-09-06T05:32:23.576Z,64.70
2022-09-06T05:33:23.567Z,64.58
2022-09-06T05:34:23.555Z,64.78
2022-09-06T05:35:23.580Z,64.37
2022-09-06T05:36:23.587Z,64.58
2022-09-06T05:37:23.526Z,64.58
2022-09-06T05:38:23.531Z,64.37
2022-09-06T05:39:23.565Z,64.37
2022-09-06T05:40:23.493Z,64.58
2022-09-06T05:41:23.486Z,64.67
2022-09-06T05:42:23.462Z,64.98
2022-09-06T05:43:23.445Z,64.67
2022-09-06T05:44:23.415Z,65.18
2022-09-06T05:45:23.475Z,64.67
2022-09-06T05:46:23.418Z,64.78
2022-09-06T05:47:23.396Z,64.34
2022-09-06T05:48:23.400Z,63.83
2022-09-06T05:49:23.357Z,63.83
2022-09-06T05:50:23.348Z,63.53
2022-09-06T05:51:23.373Z,63.73
2022-09-06T05:52:23.323Z,64.04
2022-09-06T05:53:23.387Z,63.73
2022-09-06T05:54:23.287Z,63.40
2022-09-06T05:55:23.280Z,63.20
2022-09-06T05:56:23.267Z,63.40
2022-09-06T05:57:23.269Z,63.40
2022-09-06T05:58:23.294Z,62.69
2022-09-06T05:59:23.237Z,62.89
2022-09-06T06:00:23.216Z,62.69
2022-09-06T06:01:23.257Z,62.89
2022-09-06T06:02:23.250Z,63.20
2022-09-06T06:03:23.195Z,63.30
2022-09-06T06:04:23.168Z,63.09
2022-09-06T06:05:23.150Z,62.99
2022-09-06T06:06:23.158Z,62.49
2022-09-06T06:07:23.128Z,62.86
2022-09-06T06:08:23.149Z,62.56
2022-09-06T06:09:23.162Z,62.26
2022-09-06T06:10:23.129Z,62.86
2022-09-06T06:11:23.076Z,62.86
2022-09-06T06:12:23.060Z,62.66
2022-09-06T06:13:23.039Z,62.26
2022-09-06T06:14:23.027Z,62.56
2022-09-06T06:15:23.047Z,62.56
2022-09-06T06:16:23.102Z,62.86
2022-09-06T06:17:23.000Z,62.15
2022-09-06T06:18:23.021Z,62.26
2022-09-06T06:19:30.022Z,62.05
2022-09-06T06:20:22.947Z,61.85
2022-09-06T06:21:23.029Z,62.26
2022-09-06T06:22:22.918Z,62.35
2022-09-06T06:23:22.928Z,62.35
2022-09-06T06:24:22.907Z,62.56
2022-09-06T06:25:22.886Z,62.76
2022-09-06T06:26:22.869Z,62.26
2022-09-06T06:27:22.869Z,62.63
2022-09-06T06:28:22.965Z,62.63
2022-09-06T06:29:22.848Z,62.33
2022-09-06T06:30:22.829Z,62.53
2022-09-06T06:31:22.972Z,62.33
2022-09-06T06:32:22.818Z,62.23
2022-09-06T06:33:22.790Z,61.72
2022-09-06T06:34:22.786Z,62.23
2022-09-06T06:35:22.761Z,61.82
2022-09-06T06:36:22.752Z,62.02
2022-09-06T06:37:22.728Z,61.90
2022-09-06T06:38:22.719Z,62.19
2022-09-06T06:39:22.741Z,61.29
2022-09-06T06:40:22.681Z,60.98
2022-09-06T06:41:22.731Z,61.19
2022-09-06T06:42:22.700Z,60.85
2022-09-06T06:43:22.640Z,60.55
2022-09-06T06:44:22.702Z,60.65
2022-09-06T06:45:22.700Z,60.35
2022-09-06T06:46:22.663Z,60.25
2022-09-06T06:47:22.603Z,60.35
2022-09-06T06:48:22.627Z,60.52
2022-09-06T06:49:22.612Z,60.62
2022-09-06T06:50:22.571Z,60.42
2022-09-06T06:51:22.603Z,59.71
2022-09-06T06:52:22.521Z,60.29
2022-09-06T06:53:22.520Z,60.19
2022-09-06T06:54:22.512Z,59.89
2022-09-06T06:55:22.656Z,59.76
2022-09-06T06:56:22.504Z,59.66
2022-09-06T06:57:22.565Z,59.05
2022-09-06T06:58:22.534Z,59.25
2022-09-06T06:59:23.682Z,59.56
2022-09-06T07:00:26.350Z,59.45
2022-09-06T07:01:23.843Z,59.05
2022-09-06T07:02:22.488Z,58.82
2022-09-06T07:03:22.594Z,59.22
2022-09-06T07:04:22.421Z,59.12
2022-09-06T07:07:30.730Z,57.78
2022-09-06T07:08:23.371Z,58.09
2022-09-06T07:09:22.304Z,57.78
2022-09-06T07:10:37.535Z,57.78
2022-09-06T07:11:24.840Z,58.09
2022-09-06T07:12:22.264Z,58.16
2022-09-06T07:13:22.366Z,57.56
2022-09-06T07:14:22.243Z,56.88
2022-09-06T07:15:22.233Z,56.65
2022-09-06T07:16:22.298Z,56.68
2022-09-06T07:17:22.618Z,57.45
2022-09-06T07:18:22.187Z,57.15
2022-09-06T07:20:23.717Z,57.25
2022-09-06T07:21:38.716Z,57.43
2022-09-06T07:22:26.548Z,57.32
2022-09-06T07:24:23.104Z,57.00
2022-09-06T07:25:22.098Z,56.20
2022-09-06T07:26:24.624Z,55.56
2022-09-06T07:28:25.579Z,56.14
2022-09-06T07:29:23.968Z,55.74
2022-09-06T07:30:22.028Z,55.94
2022-09-06T07:32:23.008Z,55.54
2022-09-06T07:33:22.090Z,55.03
2022-09-06T07:34:22.023Z,54.96
2022-09-06T07:35:22.038Z,55.56
2022-09-06T07:36:21.959Z,55.56
2022-09-06T07:37:21.978Z,55.56
2022-09-06T07:38:21.981Z,55.66
2022-09-06T07:39:21.941Z,56.07
2022-09-06T07:40:21.897Z,56.07
2022-09-06T07:41:21.879Z,55.76
2022-09-06T07:42:21.869Z,55.96
2022-09-06T07:43:21.870Z,55.76
2022-09-06T07:44:21.846Z,56.37
2022-09-06T07:45:21.831Z,56.67
2022-09-06T07:46:21.881Z,56.44
2022-09-06T07:48:22.813Z,56.44
2022-09-06T07:49:21.829Z,55.54
2022-09-06T07:51:22.920Z,56.01
2022-09-06T07:53:29.798Z,56.11
2022-09-06T07:54:31.239Z,55.61
2022-09-06T07:55:22.703Z,55.81
2022-09-06T07:56:21.689Z,55.71
2022-09-06T07:57:21.727Z,55.81
2022-09-06T07:58:21.668Z,55.31
2022-09-06T07:59:21.790Z,55.61
2022-09-06T08:00:21.631Z,55.71
2022-09-06T08:01:21.666Z,55.71
2022-09-06T08:02:21.643Z,55.81
2022-09-06T08:03:21.703Z,55.58
2022-09-06T08:04:21.602Z,55.81
2022-09-06T08:06:22.571Z,55.88
2022-09-06T08:09:22.602Z,55.81
2022-09-06T08:10:21.576Z,56.01
2022-09-06T08:11:21.508Z,56.21
2022-09-06T08:12:21.572Z,56.21
2022-09-06T08:13:21.486Z,56.51
2022-09-06T08:14:21.615Z,56.41
2022-09-06T08:15:21.510Z,56.38
2022-09-06T08:16:21.469Z,56.29
2022-09-06T08:17:21.428Z,56.59
2022-09-06T08:18:21.400Z,56.69
2022-09-06T08:19:21.382Z,56.09
2022-09-06T08:20:21.375Z,56.79
2022-09-06T08:21:21.373Z,56.49
2022-09-06T08:22:21.395Z,56.29
2022-09-06T08:23:21.394Z,56.38
2022-09-06T08:24:21.339Z,56.66
2022-09-06T08:25:21.304Z,56.16
2022-09-06T08:26:21.325Z,55.76
2022-09-06T08:27:21.286Z,56.26
2022-09-06T08:28:23.574Z,56.26
2022-09-06T08:29:21.258Z,55.76
2022-09-06T08:30:21.273Z,55.55
2022-09-06T08:31:21.271Z,55.76
2022-09-06T08:32:21.236Z,55.86
2022-09-06T08:33:21.235Z,55.96
2022-09-06T08:34:21.196Z,55.46
2022-09-06T08:35:21.177Z,55.46
2022-09-06T08:36:21.158Z,54.85
2022-09-06T08:37:24.913Z,56.03
2022-09-06T08:38:21.131Z,55.83
2022-09-06T08:39:21.115Z,56.84
2022-09-06T08:40:21.157Z,55.23
2022-09-06T08:41:21.085Z,55.33
2022-09-06T08:42:21.085Z,55.43
2022-09-06T08:43:21.108Z,55.43
2022-09-06T08:45:22.084Z,54.93
2022-09-06T08:46:21.061Z,55.33
2022-09-06T08:47:21.031Z,54.53
2022-09-06T08:48:21.071Z,54.72
2022-09-06T08:49:21.049Z,54.83
2022-09-06T08:50:20.989Z,55.03
2022-09-06T08:51:20.969Z,55.23
2022-09-06T08:52:20.945Z,54.72
2022-09-06T08:53:20.928Z,55.03
2022-09-06T08:54:20.918Z,54.63
2022-09-06T08:55:20.920Z,54.90
2022-09-06T08:56:20.898Z,54.80
2022-09-06T08:57:20.879Z,54.80
2022-09-06T08:58:20.869Z,54.30
2022-09-06T08:59:20.888Z,54.97
2022-09-06T09:00:20.857Z,54.88
2022-09-06T09:01:20.870Z,54.85
2022-09-06T09:02:20.922Z,54.15
2022-09-06T09:03:20.821Z,53.85
2022-09-06T09:04:20.801Z,53.82
2022-09-06T09:05:20.803Z,53.92
2022-09-06T09:06:20.798Z,54.32
2022-09-06T09:07:20.822Z,54.12
2022-09-06T09:08:20.819Z,53.32
2022-09-06T09:09:20.728Z,53.02
2022-09-06T09:10:20.731Z,53.42
2022-09-06T09:11:20.690Z,52.72
2022-09-06T09:12:20.749Z,52.82
2022-09-06T09:13:21.478Z,53.12
2022-09-06T09:14:20.681Z,53.39
2022-09-06T09:15:20.641Z,54.30
2022-09-06T09:16:20.680Z,53.69
2022-09-06T09:17:20.622Z,52.59
2022-09-06T09:18:20.624Z,53.19
2022-09-06T09:19:20.613Z,52.89
2022-09-06T09:20:20.624Z,53.00
2022-09-06T09:21:20.570Z,52.69
2022-09-06T09:22:20.562Z,52.29
2022-09-06T09:23:20.554Z,52.29
2022-09-06T09:24:20.530Z,52.49
2022-09-06T09:25:20.533Z,52.27
2022-09-06T09:26:20.503Z,52.17
2022-09-06T09:27:20.597Z,52.37
2022-09-06T09:28:20.484Z,51.37
2022-09-06T09:29:25.302Z,51.54
2022-09-06T09:31:21.493Z,52.62
2022-09-06T09:32:20.453Z,51.72
2022-09-06T09:33:20.414Z,51.39
2022-09-06T09:34:20.403Z,51.69
2022-09-06T09:35:20.437Z,51.20
2022-09-06T09:36:20.433Z,50.49
2022-09-06T09:38:21.355Z,50.59
2022-09-06T09:39:20.335Z,51.27
2022-09-06T09:40:20.334Z,51.47
2022-09-06T09:41:20.325Z,50.97
2022-09-06T09:42:20.297Z,50.45
2022-09-06T09:43:20.288Z,50.24
2022-09-06T09:44:20.486Z,49.95
2022-09-06T09:45:20.259Z,50.04
2022-09-06T09:46:20.275Z,50.52
2022-09-06T09:47:20.578Z,49.60
2022-09-06T09:48:20.219Z,50.40
2022-09-06T09:49:20.206Z,49.77
2022-09-06T09:50:20.188Z,48.70
2022-09-06T09:51:26.309Z,48.40
2022-09-06T09:52:21.178Z,48.30
2022-09-06T09:53:20.206Z,48.40
2022-09-06T09:54:20.137Z,48.80
2022-09-06T09:55:20.129Z,48.32
2022-09-06T09:56:20.263Z,48.32
2022-09-06T09:57:20.101Z,48.82
2022-09-06T09:58:20.100Z,48.52
2022-09-06T09:59:20.077Z,48.63
2022-09-06T10:00:20.070Z,48.72
2022-09-06T10:01:20.058Z,48.43
2022-09-06T10:02:20.047Z,48.52
2022-09-06T10:03:20.117Z,48.00
2022-09-06T10:05:21.021Z,48.02
2022-09-06T10:07:20.965Z,47.92
2022-09-06T10:08:19.950Z,47.63
2022-09-06T10:09:19.949Z,47.55
2022-09-06T10:10:19.920Z,47.85
2022-09-06T10:11:19.913Z,48.14
2022-09-06T10:12:19.912Z,48.55
2022-09-06T10:13:19.893Z,48.05
2022-09-06T10:14:19.886Z,48.05
2022-09-06T10:15:19.882Z,48.32
2022-09-06T10:16:19.891Z,48.43
2022-09-06T10:17:19.843Z,48.22
2022-09-06T10:18:19.834Z,48.40
2022-09-06T10:19:19.829Z,48.60
2022-09-06T10:20:19.812Z,47.78
2022-09-06T10:21:19.822Z,48.58
2022-09-06T10:22:19.772Z,47.78
2022-09-06T10:24:28.150Z,48.28
2022-09-06T10:25:20.768Z,47.88
2022-09-06T10:26:19.722Z,47.58
2022-09-06T10:27:19.703Z,47.68
2022-09-06T10:28:19.716Z,47.08
2022-09-06T10:29:19.684Z,47.28
2022-09-06T10:30:19.685Z,47.98
2022-09-06T10:31:19.788Z,47.78
2022-09-06T10:32:19.644Z,47.28
2022-09-06T10:33:19.756Z,46.98
2022-09-06T10:34:19.622Z,47.18
2022-09-06T10:35:19.605Z,47.78
2022-09-06T10:36:19.607Z,47.28
2022-09-06T10:37:19.667Z,47.68
2022-09-06T10:38:19.645Z,47.28
2022-09-06T10:39:19.558Z,47.28
2022-09-06T10:40:19.566Z,47.78
2022-09-06T10:41:19.539Z,47.98
2022-09-06T10:42:19.526Z,47.50
2022-09-06T10:43:19.498Z,47.71
2022-09-06T10:44:19.494Z,47.80
2022-09-06T10:45:19.474Z,48.10
2022-09-06T10:46:19.509Z,48.38
2022-09-06T10:47:19.488Z,47.78
2022-09-06T10:48:19.504Z,48.28
2022-09-06T10:49:20.447Z,48.38
2022-09-06T10:50:19.417Z,48.28
2022-09-06T10:51:19.395Z,48.35
2022-09-06T10:52:19.410Z,48.16
2022-09-06T10:53:19.370Z,48.55
2022-09-06T10:54:19.361Z,47.75
2022-09-06T10:55:19.393Z,47.45
2022-09-06T10:56:19.341Z,47.96
2022-09-06T10:58:20.892Z,47.44
2022-09-06T11:00:20.288Z,47.26
2022-09-06T11:01:19.461Z,46.76
2022-09-06T11:02:19.875Z,47.06
2022-09-06T11:04:22.781Z,47.06
2022-09-06T11:06:22.508Z,47.26
2022-09-06T11:07:19.580Z,47.45
2022-09-06T11:09:20.733Z,46.96
2022-09-06T11:10:19.161Z,47.75
2022-09-06T11:11:19.143Z,47.75
2022-09-06T11:12:19.474Z,47.86
2022-09-06T11:13:19.121Z,47.36
2022-09-06T11:14:19.584Z,47.96
2022-09-06T11:15:19.440Z,47.83
2022-09-06T11:16:19.119Z,47.74
2022-09-06T11:17:19.053Z,47.83
2022-09-06T11:18:19.083Z,47.74
2022-09-06T11:19:19.042Z,46.94
2022-09-06T11:20:19.015Z,47.14
2022-09-06T11:21:19.672Z,47.11
2022-09-06T11:22:19.052Z,46.64
2022-09-06T11:23:18.982Z,46.24
2022-09-06T11:24:18.993Z,46.34
2022-09-06T11:25:18.955Z,45.94
2022-09-06T11:26:19.187Z,46.64
2022-09-06T11:27:18.936Z,46.24
2022-09-06T11:28:18.926Z,46.64
2022-09-06T11:29:18.945Z,46.44
2022-09-06T11:30:18.896Z,46.34
2022-09-06T11:32:19.856Z,46.51
2022-09-06T11:33:18.845Z,46.72
2022-09-06T11:34:19.586Z,46.30
2022-09-06T11:35:18.837Z,46.79
2022-09-06T11:36:18.849Z,46.09
2022-09-06T11:37:18.800Z,46.39
2022-09-06T11:38:18.948Z,46.39
2022-09-06T11:39:18.905Z,46.20
2022-09-06T11:40:26.802Z,45.70
2022-09-06T11:41:19.756Z,46.39
2022-09-06T11:42:18.885Z,45.79
2022-09-06T11:43:18.727Z,45.87
2022-09-06T11:44:18.748Z,45.90
2022-09-06T11:45:18.869Z,45.60
2022-09-06T11:46:20.589Z,45.90
2022-09-06T11:47:18.677Z,46.00
2022-09-06T11:48:18.799Z,45.70
2022-09-06T11:49:18.662Z,46.69
2022-09-06T11:50:18.631Z,46.69
2022-09-06T11:51:18.631Z,46.59
2022-09-06T11:52:19.412Z,46.42
2022-09-06T11:53:18.790Z,46.12
2022-09-06T11:54:18.578Z,46.01
2022-09-06T11:55:22.254Z,46.31
2022-09-06T11:56:18.551Z,47.02
2022-09-06T11:57:18.539Z,45.92
2022-09-06T11:58:18.521Z,46.42
2022-09-06T11:59:18.521Z,46.24
2022-09-06T12:00:18.506Z,46.54
2022-09-06T12:01:18.490Z,46.84
2022-09-06T12:02:18.605Z,46.64
2022-09-06T12:04:19.484Z,46.84
2022-09-06T12:05:18.441Z,47.24
2022-09-06T12:06:18.423Z,46.94
2022-09-06T12:07:18.413Z,47.14
2022-09-06T12:08:18.401Z,47.03
2022-09-06T12:09:18.385Z,46.94
2022-09-06T12:10:18.646Z,46.84
2022-09-06T12:11:18.368Z,47.53
2022-09-06T12:12:18.344Z,47.44
2022-09-06T12:13:18.513Z,47.74
2022-09-06T12:14:18.304Z,48.03
2022-09-06T12:15:18.293Z,47.83
2022-09-06T12:16:18.598Z,48.03
2022-09-06T12:17:18.580Z,47.83
2022-09-06T12:18:18.254Z,47.93
2022-09-06T12:19:18.246Z,47.63
2022-09-06T12:20:25.345Z,47.83
2022-09-06T12:21:18.235Z,48.13
2022-09-06T12:22:18.226Z,48.13
2022-09-06T12:23:18.216Z,47.63
2022-09-06T12:24:18.190Z,47.93
2022-09-06T12:25:18.180Z,48.33
2022-09-06T12:26:18.188Z,49.03
2022-09-06T12:27:18.147Z,48.03
2022-09-06T12:28:18.128Z,47.74
2022-09-06T12:29:18.116Z,48.05
2022-09-06T12:30:18.095Z,48.35
2022-09-06T12:31:18.451Z,49.25
2022-09-06T12:32:18.096Z,49.25
2022-09-06T12:33:18.079Z,48.85
2022-09-06T12:34:18.059Z,48.46
2022-09-06T12:36:19.039Z,48.46
2022-09-06T12:37:18.020Z,48.85
2022-09-06T12:38:18.009Z,48.75
2022-09-06T12:39:17.998Z,48.65
2022-09-06T12:40:17.969Z,48.65
2022-09-06T12:41:17.990Z,48.55
2022-09-06T12:42:17.972Z,48.65
2022-09-06T12:43:17.944Z,48.75
2022-09-06T12:44:17.949Z,48.46
2022-09-06T12:45:17.921Z,48.55
2022-09-06T12:46:17.939Z,48.95
2022-09-06T12:47:17.891Z,48.85
2022-09-06T12:48:17.873Z,49.15
2022-09-06T12:49:17.861Z,48.46
2022-09-06T12:50:17.885Z,48.55
2022-09-06T12:51:17.841Z,48.33
2022-09-06T12:52:17.814Z,48.43
2022-09-06T12:53:20.430Z,48.43
2022-09-06T12:54:17.801Z,48.33
2022-09-06T12:55:17.802Z,48.43
2022-09-06T12:56:17.782Z,48.13
2022-09-06T12:57:17.762Z,48.33
2022-09-06T12:58:17.743Z,48.83
2022-09-06T12:59:17.764Z,48.43
2022-09-06T13:00:17.721Z,48.21
2022-09-06T13:01:17.840Z,47.91
2022-09-06T13:02:17.779Z,48.31
2022-09-06T13:03:17.684Z,48.61
2022-09-06T13:04:17.686Z,48.41
2022-09-06T13:05:17.668Z,47.99
2022-09-06T13:06:17.643Z,48.19
2022-09-06T13:07:17.685Z,48.49
2022-09-06T13:08:17.625Z,47.99
2022-09-06T13:09:17.603Z,48.08
2022-09-06T13:10:17.575Z,47.89
2022-09-06T13:11:17.633Z,48.46
2022-09-06T13:12:17.545Z,48.86
2022-09-06T13:13:17.545Z,47.77
2022-09-06T13:14:17.538Z,47.66
2022-09-06T13:15:17.528Z,48.04
2022-09-06T13:16:17.594Z,48.34
2022-09-06T13:17:17.497Z,47.54
2022-09-06T13:18:17.478Z,47.94